• Join FlightAware (Why Join?)
  • Login
  • US Flag 
01:49AM EDT


 

Airport Tracker/Info


-or-


 

Live Flight TrackerFlight Track Log ✈ N148CZ ✈ 18-Jun-2013 ✈ KFRG - KPNE

Flight Track Log - Related Links

Times and Time Zones

All times are in EDT time to prevent confusion due to time zone crossing. See the N148CZ flight status page for this flight to view local times or setup timezone preferences in your user account.

Time Position Orientation Groundspeed Altitude Reporting Facility
EDT Latitude Longitude Course Direction KTS MPH feet Rate Location/Type
08:12AM 40.6950 -73.4480 254° West 103 119 2,200  Level FlightAware
08:12AM 40.6930 -73.4590 257° West 106 122 2,500 1,080 Climbing FlightAware
08:12AM 40.6900 -73.4760 257° West 107 123 3,000 1,080 Climbing FlightAware
08:13AM 40.6860 -73.4940 254° West 109 125 3,500 960 Climbing FlightAware
08:13AM 40.6830 -73.5120 258° West 112 129 3,900 960 Climbing FlightAware
08:14AM 40.6810 -73.5220 255° West 113 130 4,200 780 Climbing FlightAware
08:14AM 40.6780 -73.5420 259° West 124 143 4,500 300 Climbing FlightAware
08:15AM 40.6730 -73.5640 253° West 147 169 4,500  Level FlightAware
08:15AM 40.6670 -73.5980 257° West 155 178 4,500  Level FlightAware
08:16AM 40.6620 -73.6290 258° West 158 182 4,500  Level FlightAware
08:16AM 40.6570 -73.6560 256° West 159 183 4,500  Level FlightAware
08:17AM 40.6510 -73.6820 253° West 159 183 4,500  Level FlightAware
08:17AM 40.6460 -73.7070 255° West 160 184 4,500  Level FlightAware
08:18AM 40.6410 -73.7330 256° West 160 184 4,500  Level FlightAware
08:18AM 40.6380 -73.7480 255° West 160 184 4,500  Level FlightAware
08:18AM 40.6320 -73.7720 252° West 159 183 4,500  Level FlightAware
08:18AM 40.6240 -73.7820 223° Southwest 161 185 4,500  Level FlightAware
08:19AM 40.6170 -73.7860 203° Southwest 162 186 4,500  Level FlightAware
08:19AM 40.5950 -73.7990 204° Southwest 161 185 4,500  Level FlightAware
08:20AM 40.5810 -73.8100 211° Southwest 161 185 4,500  Level FlightAware
08:20AM 40.5740 -73.8250 238° Southwest 160 184 4,500  Level FlightAware
08:21AM 40.5630 -73.8450 234° Southwest 160 184 4,500  Level FlightAware
08:21AM 40.5290 -73.8780 216° Southwest 161 185 4,500  Level FlightAware
08:22AM 40.5120 -73.8940 216° Southwest 161 185 4,500  Level FlightAware
08:22AM 40.5020 -73.9040 217° Southwest 161 185 4,500  Level FlightAware
08:22AM 40.4970 -73.9140 237° Southwest 159 183 4,500  Level FlightAware
08:23AM 40.4880 -73.9370 243° Southwest 161 185 4,500  Level FlightAware
08:23AM 40.4790 -73.9620 245° Southwest 160 184 4,500  Level FlightAware
08:23AM 40.4750 -73.9720 242° Southwest 161 185 4,500  Level FlightAware
08:24AM 40.4690 -73.9910 247° West 161 185 4,500  Level FlightAware
08:24AM 40.4600 -74.0150 244° Southwest 162 186 4,500  Level FlightAware
08:25AM 40.4500 -74.0410 243° Southwest 162 186 4,500  Level FlightAware
08:26AM 40.4360 -74.0780 244° Southwest 161 185 4,500  Level FlightAware
08:26AM 40.4180 -74.1270 244° Southwest 162 186 4,500  Level FlightAware
08:27AM 40.4080 -74.1530 243° Southwest 161 185 4,500  Level FlightAware
08:27AM 40.4000 -74.1740 243° Southwest 161 185 4,500  Level FlightAware
08:27AM 40.3950 -74.1870 243° Southwest 161 185 4,500  Level FlightAware
08:28AM 40.3860 -74.2120 245° Southwest 161 185 4,500  Level FlightAware
08:28AM 40.3770 -74.2370 245° Southwest 162 186 4,500  Level FlightAware
08:29AM 40.3670 -74.2620 242° Southwest 162 186 4,500  Level FlightAware
08:29AM 40.3580 -74.2870 245° Southwest 162 186 4,500  Level FlightAware
08:30AM 40.3490 -74.3110 244° Southwest 162 186 4,500  Level FlightAware
08:30AM 40.3447 -74.3214 242° Southwest 163 188 4,500  Level FlightAware ADS-B
08:30AM 40.3391 -74.3361 243° Southwest 163 188 4,500  Level FlightAware ADS-B
08:30AM 40.3323 -74.3541 244° Southwest 163 188 4,500  Level FlightAware ADS-B
08:31AM 40.3260 -74.3710 244° Southwest 162 186 4,500  Level FlightAware ADS-B
08:31AM 40.3204 -74.3857 243° Southwest 162 186 4,500  Level FlightAware ADS-B
08:31AM 40.3147 -74.4010 244° Southwest 163 188 4,500  Level FlightAware ADS-B
08:32AM 40.3081 -74.4185 244° Southwest 163 188 4,500  Level FlightAware ADS-B
08:32AM 40.3014 -74.4361 243° Southwest 163 188 4,500  Level FlightAware ADS-B
08:32AM 40.2963 -74.4498 244° Southwest 162 186 4,500  Level FlightAware ADS-B
08:33AM 40.2909 -74.4638 243° Southwest 162 186 4,500  Level FlightAware ADS-B
08:33AM 40.2859 -74.4771 244° Southwest 163 188 4,500  Level FlightAware ADS-B
08:33AM 40.2806 -74.4909 243° Southwest 163 188 4,500  Level FlightAware ADS-B
08:33AM 40.2754 -74.5047 244° Southwest 162 186 4,500  Level FlightAware ADS-B
08:34AM 40.2698 -74.5195 244° Southwest 162 186 4,500  Level FlightAware ADS-B
08:34AM 40.2648 -74.5328 244° Southwest 162 186 4,500  Level FlightAware ADS-B
08:34AM 40.2590 -74.5481 244° Southwest 162 186 4,500  Level FlightAware ADS-B
08:34AM 40.2578 -74.5521 249° West 162 186 4,500  Level FlightAware ADS-B
08:34AM 40.2534 -74.5661 248° West 162 186 4,500  Level FlightAware ADS-B
08:35AM 40.2488 -74.5810 248° West 162 186 4,500  Level FlightAware ADS-B
08:35AM 40.2441 -74.5961 248° West 162 186 4,500  Level FlightAware ADS-B
08:35AM 40.2393 -74.6114 248° West 162 186 4,500  Level FlightAware ADS-B
08:36AM 40.2348 -74.6253 247° West 163 188 4,500 -240 Level FlightAware ADS-B
08:36AM 40.2298 -74.6411 247° West 169 194 4,400 -540 Descending FlightAware ADS-B
08:36AM 40.2246 -74.6578 248° West 167 192 4,200 -720 Descending FlightAware ADS-B
08:36AM 40.2198 -74.6736 248° West 168 193 4,000 -780 Descending FlightAware ADS-B
08:37AM 40.2154 -74.6882 248° West 169 194 3,800 -780 Descending FlightAware ADS-B
08:37AM 40.2102 -74.7051 248° West 169 194 3,600 -720 Descending FlightAware ADS-B
08:37AM 40.2052 -74.7202 247° West 169 194 3,400 -780 Descending FlightAware ADS-B
08:38AM 40.1997 -74.7361 246° West 168 193 3,200 -720 Descending FlightAware ADS-B
08:38AM 40.1940 -74.7520 245° Southwest 164 189 3,000 -600 Descending FlightAware ADS-B
08:38AM 40.1890 -74.7653 244° Southwest 162 186 2,900 -420 Descending FlightAware ADS-B
08:38AM 40.1836 -74.7793 243° Southwest 159 183 2,800 -420 Descending FlightAware ADS-B
08:39AM 40.1784 -74.7927 243° Southwest 155 178 2,700 -240 Descending FlightAware ADS-B
08:39AM 40.1736 -74.8058 244° Southwest 152 175 2,700 -240 Level FlightAware ADS-B
08:39AM 40.1691 -74.8184 245° Southwest 150 173 2,600 -240 Descending FlightAware ADS-B
08:39AM 40.1648 -74.8303 245° Southwest 149 171 2,600 -240 Level FlightAware ADS-B
08:40AM 40.1602 -74.8429 244° Southwest 153 176 2,500 -600 Descending FlightAware ADS-B
08:40AM 40.1553 -74.8565 245° Southwest 158 182 2,300 -600 Descending FlightAware ADS-B
08:40AM 40.1501 -74.8706 244° Southwest 160 184 2,200 -480 Descending FlightAware ADS-B
08:40AM 40.1473 -74.8782 244° Southwest 159 183 2,100 -660 Descending FlightAware ADS-B
08:40AM 40.1443 -74.8873 247° West 159 183 2,000 -480 Descending FlightAware ADS-B
08:41AM 40.1402 -74.9007 248° West 157 181 1,900 -660 Descending FlightAware ADS-B
08:41AM 40.1368 -74.9111 247° West 147 169 1,700 -600 Descending FlightAware ADS-B
08:41AM 40.1350 -74.9175 250° West 134 154 1,700 -600 Level FlightAware ADS-B
08:42AM 40.1333 -74.9500 250° West 104 120 1,100 -540 Descending Philadelphia TRACON
08:43AM 40.1000 -74.9833 217° Southwest 96 110 700 -420 Descending Philadelphia TRACON
08:45AM 40.0819 -75.0106 197° South  Level Estimated
08:52AM 40.0819 -75.0106 197° South  Level Estimated